Terminal Aerodrome Forecast
Issued by NWS

Home | Current Version | Previous Version | Text Only | Print | Product List | Glossary On
Versions: 1 2 3 4 5 6 7 8 9 10 11 12 13 14 15 16 17
489
FTUS43 KFGF 101129
TAFBJI
TAF
KBJI 101129Z 1012/1112 VRB03KT P6SM BKN018
     FM101600 VRB03KT P6SM BKN020
     FM110800 10007KT 4SM -SN OVC015=

USA.gov is the U.S. government's official web portal to all federal, state and local government web resources and services.